sensor_id;sensor_type;location;lat;lon;timestamp;pressure;altitude;pressure_sealevel;temperature;humidity
49473;BME280;67434;50.956;6.918;2023-02-11T00:00:06;103054.66;;;6.62;71.10
49473;BME280;67434;50.956;6.918;2023-02-11T00:02:32;103048.78;;;6.58;71.33
49473;BME280;67434;50.956;6.918;2023-02-11T00:04:58;103040.59;;;6.52;71.35
49473;BME280;67434;50.956;6.918;2023-02-11T00:07:27;103047.66;;;6.45;71.87
49473;BME280;67434;50.956;6.918;2023-02-11T00:09:53;103041.09;;;6.47;71.25
49473;BME280;67434;50.956;6.918;2023-02-11T00:12:18;103035.56;;;6.49;71.49
49473;BME280;67434;50.956;6.918;2023-02-11T00:14:44;103034.50;;;6.58;71.31
49473;BME280;67434;50.956;6.918;2023-02-11T00:17:09;103032.97;;;6.64;70.81
49473;BME280;67434;50.956;6.918;2023-02-11T00:19:34;103031.81;;;6.58;71.02
49473;BME280;67434;50.956;6.918;2023-02-11T00:22:00;103027.63;;;6.55;71.14
49473;BME280;67434;50.956;6.918;2023-02-11T00:24:25;103029.63;;;6.62;71.02
49473;BME280;67434;50.956;6.918;2023-02-11T00:26:50;103020.25;;;6.57;71.37
49473;BME280;67434;50.956;6.918;2023-02-11T00:29:16;103017.25;;;6.52;71.30
49473;BME280;67434;50.956;6.918;2023-02-11T00:31:41;103023.75;;;6.58;71.32
49473;BME280;67434;50.956;6.918;2023-02-11T00:34:06;103022.13;;;6.49;71.41
49473;BME280;67434;50.956;6.918;2023-02-11T00:36:33;103017.59;;;6.49;71.70
49473;BME280;67434;50.956;6.918;2023-02-11T00:38:59;103022.97;;;6.49;71.51
49473;BME280;67434;50.956;6.918;2023-02-11T00:41:24;103016.94;;;6.47;71.75
49473;BME280;67434;50.956;6.918;2023-02-11T00:43:50;103022.97;;;6.49;71.66
49473;BME280;67434;50.956;6.918;2023-02-11T00:46:15;103019.78;;;6.46;72.07
49473;BME280;67434;50.956;6.918;2023-02-11T00:48:41;103014.75;;;6.43;72.10
49473;BME280;67434;50.956;6.918;2023-02-11T00:51:07;103015.47;;;6.37;72.25
49473;BME280;67434;50.956;6.918;2023-02-11T00:53:32;103002.69;;;6.31;72.70
49473;BME280;67434;50.956;6.918;2023-02-11T00:55:58;102999.22;;;6.22;73.09
49473;BME280;67434;50.956;6.918;2023-02-11T00:58:25;102998.38;;;6.21;73.25
49473;BME280;67434;50.956;6.918;2023-02-11T01:00:50;102989.81;;;6.18;73.31
49473;BME280;67434;50.956;6.918;2023-02-11T01:03:16;102995.38;;;6.16;73.43
49473;BME280;67434;50.956;6.918;2023-02-11T01:05:41;102992.72;;;6.08;73.96
49473;BME280;67434;50.956;6.918;2023-02-11T01:08:06;103001.97;;;5.98;74.30
49473;BME280;67434;50.956;6.918;2023-02-11T01:10:32;103001.63;;;5.92;74.62
49473;BME280;67434;50.956;6.918;2023-02-11T01:12:57;103006.50;;;5.97;74.08
49473;BME280;67434;50.956;6.918;2023-02-11T01:15:23;103004.00;;;5.95;74.12
49473;BME280;67434;50.956;6.918;2023-02-11T01:17:48;103012.34;;;5.84;74.82
49473;BME280;67434;50.956;6.918;2023-02-11T01:20:18;103007.50;;;5.80;74.85
49473;BME280;67434;50.956;6.918;2023-02-11T01:22:43;103013.19;;;5.77;75.08
49473;BME280;67434;50.956;6.918;2023-02-11T01:25:09;103015.88;;;5.85;75.11
49473;BME280;67434;50.956;6.918;2023-02-11T01:27:35;103015.53;;;5.88;74.67
49473;BME280;67434;50.956;6.918;2023-02-11T01:30:00;103006.31;;;5.90;74.48
49473;BME280;67434;50.956;6.918;2023-02-11T01:32:26;103005.63;;;5.88;74.58
49473;BME280;67434;50.956;6.918;2023-02-11T01:34:53;102993.38;;;5.86;74.60
49473;BME280;67434;50.956;6.918;2023-02-11T01:37:18;103000.13;;;5.90;74.58
49473;BME280;67434;50.956;6.918;2023-02-11T01:39:43;103008.50;;;5.79;75.33
49473;BME280;67434;50.956;6.918;2023-02-11T01:42:16;103012.84;;;5.88;74.77
49473;BME280;67434;50.956;6.918;2023-02-11T01:44:42;103022.25;;;5.92;74.69
49473;BME280;67434;50.956;6.918;2023-02-11T01:47:08;103024.28;;;5.90;74.71
49473;BME280;67434;50.956;6.918;2023-02-11T01:49:46;103027.47;;;5.93;74.56
49473;BME280;67434;50.956;6.918;2023-02-11T01:52:15;103030.50;;;5.99;74.35
49473;BME280;67434;50.956;6.918;2023-02-11T01:54:47;103033.00;;;6.00;74.49
49473;BME280;67434;50.956;6.918;2023-02-11T01:57:33;103033.53;;;5.95;74.46
49473;BME280;67434;50.956;6.918;2023-02-11T02:00:26;103030.81;;;6.04;74.52
49473;BME280;67434;50.956;6.918;2023-02-11T02:03:14;103029.13;;;6.11;74.27
49473;BME280;67434;50.956;6.918;2023-02-11T02:05:52;103017.22;;;6.05;74.10
49473;BME280;67434;50.956;6.918;2023-02-11T02:08:29;103021.09;;;6.03;74.57
49473;BME280;67434;50.956;6.918;2023-02-11T02:10:57;103018.56;;;6.01;74.52
49473;BME280;67434;50.956;6.918;2023-02-11T02:13:26;103019.75;;;5.99;74.61
49473;BME280;67434;50.956;6.918;2023-02-11T02:15:58;103013.56;;;5.98;74.66
49473;BME280;67434;50.956;6.918;2023-02-11T02:27:45;103018.88;;;5.82;75.42
49473;BME280;67434;50.956;6.918;2023-02-11T02:33:13;103008.84;;;5.68;76.03
49473;BME280;67434;50.956;6.918;2023-02-11T02:36:17;103002.50;;;5.60;76.22
49473;BME280;67434;50.956;6.918;2023-02-11T02:38:50;102991.06;;;5.50;76.54
49473;BME280;67434;50.956;6.918;2023-02-11T02:41:20;103002.81;;;5.49;77.02
49473;BME280;67434;50.956;6.918;2023-02-11T02:43:48;103003.13;;;5.46;77.00
49473;BME280;67434;50.956;6.918;2023-02-11T02:46:23;102991.56;;;5.46;77.21
49473;BME280;67434;50.956;6.918;2023-02-11T02:48:51;102985.03;;;5.40;77.12
49473;BME280;67434;50.956;6.918;2023-02-11T03:01:27;102976.47;;;5.04;78.75
49473;BME280;67434;50.956;6.918;2023-02-11T03:04:16;102958.88;;;5.10;78.84
49473;BME280;67434;50.956;6.918;2023-02-11T03:06:54;102951.84;;;5.09;78.70
49473;BME280;67434;50.956;6.918;2023-02-11T03:09:33;102952.00;;;5.15;78.31
49473;BME280;67434;50.956;6.918;2023-02-11T03:12:00;102953.22;;;5.21;78.47
49473;BME280;67434;50.956;6.918;2023-02-11T03:14:29;102946.50;;;5.33;77.63
49473;BME280;67434;50.956;6.918;2023-02-11T03:16:57;102943.13;;;5.39;77.49
49473;BME280;67434;50.956;6.918;2023-02-11T03:19:28;102950.66;;;5.44;77.11
49473;BME280;67434;50.956;6.918;2023-02-11T03:21:55;102955.88;;;5.45;77.16
49473;BME280;67434;50.956;6.918;2023-02-11T03:24:30;102949.81;;;5.51;76.98
49473;BME280;67434;50.956;6.918;2023-02-11T03:27:01;102957.69;;;5.53;76.56
49473;BME280;67434;50.956;6.918;2023-02-11T03:30:05;102961.72;;;5.49;76.88
49473;BME280;67434;50.956;6.918;2023-02-11T03:32:58;102964.56;;;5.47;76.87
49473;BME280;67434;50.956;6.918;2023-02-11T03:35:24;102977.66;;;5.50;76.47
49473;BME280;67434;50.956;6.918;2023-02-11T03:37:57;102965.25;;;5.49;76.49
49473;BME280;67434;50.956;6.918;2023-02-11T03:40:27;102970.78;;;5.56;76.15
49473;BME280;67434;50.956;6.918;2023-02-11T03:42:59;102957.88;;;5.51;76.70
49473;BME280;67434;50.956;6.918;2023-02-11T03:45:27;102943.78;;;5.49;76.40
49473;BME280;67434;50.956;6.918;2023-02-11T03:48:04;102941.09;;;5.57;76.16
49473;BME280;67434;50.956;6.918;2023-02-11T03:50:32;102932.22;;;5.49;76.55
49473;BME280;67434;50.956;6.918;2023-02-11T03:53:00;102936.91;;;5.55;76.46
49473;BME280;67434;50.956;6.918;2023-02-11T03:55:27;102942.59;;;5.52;76.63
49473;BME280;67434;50.956;6.918;2023-02-11T03:57:54;102940.94;;;5.51;76.69
49473;BME280;67434;50.956;6.918;2023-02-11T04:00:19;102947.97;;;5.52;76.45
49473;BME280;67434;50.956;6.918;2023-02-11T04:02:45;102954.84;;;5.54;76.69
49473;BME280;67434;50.956;6.918;2023-02-11T04:05:13;102960.56;;;5.51;76.93
49473;BME280;67434;50.956;6.918;2023-02-11T04:07:39;102967.06;;;5.57;76.30
49473;BME280;67434;50.956;6.918;2023-02-11T04:10:06;102960.22;;;5.62;76.35
49473;BME280;67434;50.956;6.918;2023-02-11T04:12:31;102958.22;;;5.64;76.08
49473;BME280;67434;50.956;6.918;2023-02-11T04:14:57;102963.25;;;5.68;76.14
49473;BME280;67434;50.956;6.918;2023-02-11T04:17:25;102963.91;;;5.70;76.05
49473;BME280;67434;50.956;6.918;2023-02-11T04:19:50;102965.09;;;5.67;75.98
49473;BME280;67434;50.956;6.918;2023-02-11T04:22:16;102958.03;;;5.66;76.15
49473;BME280;67434;50.956;6.918;2023-02-11T04:24:41;102964.22;;;5.75;76.01
49473;BME280;67434;50.956;6.918;2023-02-11T04:27:08;102956.00;;;5.76;75.77
49473;BME280;67434;50.956;6.918;2023-02-11T04:29:33;102944.09;;;5.79;76.09
49473;BME280;67434;50.956;6.918;2023-02-11T04:31:59;102943.25;;;5.78;76.05
49473;BME280;67434;50.956;6.918;2023-02-11T04:34:24;102941.91;;;5.82;75.74
49473;BME280;67434;50.956;6.918;2023-02-11T04:36:50;102935.34;;;5.85;75.67
49473;BME280;67434;50.956;6.918;2023-02-11T04:39:15;102920.56;;;5.89;75.49
49473;BME280;67434;50.956;6.918;2023-02-11T04:41:40;102922.28;;;5.82;76.02
49473;BME280;67434;50.956;6.918;2023-02-11T04:44:06;102920.78;;;5.79;75.84
49473;BME280;67434;50.956;6.918;2023-02-11T04:46:31;102921.44;;;5.81;75.95
49473;BME280;67434;50.956;6.918;2023-02-11T04:48:57;102926.47;;;5.84;75.94
49473;BME280;67434;50.956;6.918;2023-02-11T04:51:22;102924.28;;;5.80;76.06
49473;BME280;67434;50.956;6.918;2023-02-11T04:53:47;102922.75;;;5.85;76.08
49473;BME280;67434;50.956;6.918;2023-02-11T04:56:13;102921.25;;;5.83;75.87
49473;BME280;67434;50.956;6.918;2023-02-11T04:58:38;102922.28;;;5.82;76.25
49473;BME280;67434;50.956;6.918;2023-02-11T05:01:08;102929.97;;;5.85;75.72
49473;BME280;67434;50.956;6.918;2023-02-11T05:03:34;102944.72;;;5.89;75.66
49473;BME280;67434;50.956;6.918;2023-02-11T05:06:00;102933.16;;;5.88;75.69
49473;BME280;67434;50.956;6.918;2023-02-11T05:08:26;102937.53;;;5.89;75.74
49473;BME280;67434;50.956;6.918;2023-02-11T05:10:51;102936.66;;;5.89;75.90
49473;BME280;67434;50.956;6.918;2023-02-11T05:13:17;102938.03;;;5.85;76.07
49473;BME280;67434;50.956;6.918;2023-02-11T05:15:42;102927.63;;;5.82;76.36
49473;BME280;67434;50.956;6.918;2023-02-11T05:18:08;102930.00;;;5.77;76.60
49473;BME280;67434;50.956;6.918;2023-02-11T05:20:33;102926.66;;;5.75;76.97
49473;BME280;67434;50.956;6.918;2023-02-11T05:22:58;102930.00;;;5.77;76.94
49473;BME280;67434;50.956;6.918;2023-02-11T05:25:24;102923.47;;;5.71;76.99
49473;BME280;67434;50.956;6.918;2023-02-11T05:27:49;102926.66;;;5.75;76.97
49473;BME280;67434;50.956;6.918;2023-02-11T05:30:15;102929.50;;;5.73;77.41
49473;BME280;67434;50.956;6.918;2023-02-11T05:32:40;102923.97;;;5.75;77.36
49473;BME280;67434;50.956;6.918;2023-02-11T05:35:06;102930.84;;;5.77;77.23
49473;BME280;67434;50.956;6.918;2023-02-11T05:37:32;102934.88;;;5.73;77.18
49473;BME280;67434;50.956;6.918;2023-02-11T05:39:57;102930.66;;;5.79;77.18
49473;BME280;67434;50.956;6.918;2023-02-11T05:42:23;102916.25;;;5.80;77.50
49473;BME280;67434;50.956;6.918;2023-02-11T05:44:48;102921.09;;;5.84;76.98
49473;BME280;67434;50.956;6.918;2023-02-11T05:47:13;102930.16;;;5.83;76.98
49473;BME280;67434;50.956;6.918;2023-02-11T05:49:39;102930.81;;;5.85;76.93
49473;BME280;67434;50.956;6.918;2023-02-11T05:52:05;102931.34;;;5.81;77.65
49473;BME280;67434;50.956;6.918;2023-02-11T05:54:30;102924.00;;;5.67;78.03
49473;BME280;67434;50.956;6.918;2023-02-11T05:56:56;102921.63;;;5.72;78.26
49473;BME280;67434;50.956;6.918;2023-02-11T05:59:21;102906.84;;;5.76;77.95
49473;BME280;67434;50.956;6.918;2023-02-11T06:01:46;102908.88;;;5.74;78.38
49473;BME280;67434;50.956;6.918;2023-02-11T06:04:11;102916.59;;;5.69;78.97
49473;BME280;67434;50.956;6.918;2023-02-11T06:06:37;102914.94;;;5.68;79.28
49473;BME280;67434;50.956;6.918;2023-02-11T06:09:02;102909.88;;;5.73;79.19
49473;BME280;67434;50.956;6.918;2023-02-11T06:11:28;102905.50;;;5.80;79.17
49473;BME280;67434;50.956;6.918;2023-02-11T06:13:53;102906.66;;;5.85;79.00
49473;BME280;67434;50.956;6.918;2023-02-11T06:16:18;102899.31;;;5.79;79.45
49473;BME280;67434;50.956;6.918;2023-02-11T06:18:44;102890.75;;;5.76;79.84
49473;BME280;67434;50.956;6.918;2023-02-11T06:21:10;102892.91;;;5.80;80.10
49473;BME280;67434;50.956;6.918;2023-02-11T06:23:36;102895.91;;;5.85;79.69
49473;BME280;67434;50.956;6.918;2023-02-11T06:26:03;102906.34;;;5.80;80.06
49473;BME280;67434;50.956;6.918;2023-02-11T06:28:29;102907.84;;;5.83;79.96
49473;BME280;67434;50.956;6.918;2023-02-11T06:30:56;102909.03;;;5.80;79.70
49473;BME280;67434;50.956;6.918;2023-02-11T06:33:22;102910.69;;;5.81;80.17
49473;BME280;67434;50.956;6.918;2023-02-11T06:35:48;102916.56;;;5.85;79.80
49473;BME280;67434;50.956;6.918;2023-02-11T06:38:13;102917.03;;;5.88;79.40
49473;BME280;67434;50.956;6.918;2023-02-11T06:40:38;102914.88;;;5.84;80.27
49473;BME280;67434;50.956;6.918;2023-02-11T06:43:04;102915.22;;;5.81;80.11
49473;BME280;67434;50.956;6.918;2023-02-11T06:45:30;102915.72;;;5.84;80.14
49473;BME280;67434;50.956;6.918;2023-02-11T06:47:55;102916.06;;;5.81;80.44
49473;BME280;67434;50.956;6.918;2023-02-11T06:50:21;102919.41;;;5.83;80.20
49473;BME280;67434;50.956;6.918;2023-02-11T06:52:46;102924.00;;;5.67;81.29
49473;BME280;67434;50.956;6.918;2023-02-11T06:55:13;102921.97;;;5.69;81.03
49473;BME280;67434;50.956;6.918;2023-02-11T06:57:39;102926.00;;;5.73;81.25
49473;BME280;67434;50.956;6.918;2023-02-11T07:00:04;102931.84;;;5.76;81.13
49473;BME280;67434;50.956;6.918;2023-02-11T07:02:30;102939.06;;;5.76;81.13
49473;BME280;67434;50.956;6.918;2023-02-11T07:04:55;102938.03;;;5.85;81.19
49473;BME280;67434;50.956;6.918;2023-02-11T07:07:20;102941.19;;;5.88;80.95
49473;BME280;67434;50.956;6.918;2023-02-11T07:09:46;102951.13;;;5.80;81.33
49473;BME280;67434;50.956;6.918;2023-02-11T07:12:11;102941.56;;;5.85;81.64
49473;BME280;67434;50.956;6.918;2023-02-11T07:14:36;102944.91;;;5.87;81.42
49473;BME280;67434;50.956;6.918;2023-02-11T07:17:02;102940.22;;;5.89;81.68
49473;BME280;67434;50.956;6.918;2023-02-11T07:19:28;102938.03;;;5.93;81.12
49473;BME280;67434;50.956;6.918;2023-02-11T07:21:54;102930.50;;;5.97;81.30
49473;BME280;67434;50.956;6.918;2023-02-11T07:24:19;102935.19;;;5.94;81.42
49473;BME280;67434;50.956;6.918;2023-02-11T07:26:47;102938.56;;;5.97;81.83
49473;BME280;67434;50.956;6.918;2023-02-11T07:29:12;102947.75;;;5.94;81.83
49473;BME280;67434;50.956;6.918;2023-02-11T07:31:38;102938.03;;;6.01;81.94
49473;BME280;67434;50.956;6.918;2023-02-11T07:34:03;102946.75;;;6.03;81.76
49473;BME280;67434;50.956;6.918;2023-02-11T07:36:29;102950.94;;;6.06;82.19
49473;BME280;67434;50.956;6.918;2023-02-11T07:38:56;102948.06;;;6.07;82.39
49473;BME280;67434;50.956;6.918;2023-02-11T07:41:24;102958.50;;;6.02;82.53
49473;BME280;67434;50.956;6.918;2023-02-11T07:43:49;102963.00;;;6.10;82.68
49473;BME280;67434;50.956;6.918;2023-02-11T07:46:21;102968.22;;;6.03;83.29
49473;BME280;67434;50.956;6.918;2023-02-11T07:48:47;102960.84;;;6.05;83.16
49473;BME280;67434;50.956;6.918;2023-02-11T07:51:18;102959.00;;;6.06;83.14
49473;BME280;67434;50.956;6.918;2023-02-11T07:53:44;102956.47;;;6.04;83.36
49473;BME280;67434;50.956;6.918;2023-02-11T07:56:12;102961.19;;;6.02;83.41
49473;BME280;67434;50.956;6.918;2023-02-11T07:58:37;102965.22;;;5.98;83.83
49473;BME280;67434;50.956;6.918;2023-02-11T08:01:05;102972.59;;;6.04;83.47
49473;BME280;67434;50.956;6.918;2023-02-11T08:03:34;102978.97;;;6.03;83.91
49473;BME280;67434;50.956;6.918;2023-02-11T08:06:04;102982.31;;;6.05;83.32
49473;BME280;67434;50.956;6.918;2023-02-11T08:08:31;102983.81;;;6.08;83.54
49473;BME280;67434;50.956;6.918;2023-02-11T08:10:57;102987.84;;;6.04;83.91
49473;BME280;67434;50.956;6.918;2023-02-11T08:13:22;102996.91;;;6.11;84.00
49473;BME280;67434;50.956;6.918;2023-02-11T08:15:47;102993.09;;;5.97;84.68
49473;BME280;67434;50.956;6.918;2023-02-11T08:18:13;102980.16;;;6.01;84.19
49473;BME280;67434;50.956;6.918;2023-02-11T08:20:38;102989.22;;;5.91;85.14
49473;BME280;67434;50.956;6.918;2023-02-11T08:23:05;102988.38;;;5.99;84.38
49473;BME280;67434;50.956;6.918;2023-02-11T08:25:32;102987.72;;;5.97;85.04
49473;BME280;67434;50.956;6.918;2023-02-11T08:27:57;102982.34;;;5.97;85.26
49473;BME280;67434;50.956;6.918;2023-02-11T08:30:23;102980.47;;;6.06;84.84
49473;BME280;67434;50.956;6.918;2023-02-11T08:32:49;102992.06;;;6.06;84.87
49473;BME280;67434;50.956;6.918;2023-02-11T08:35:14;102994.06;;;6.04;84.76
49473;BME280;67434;50.956;6.918;2023-02-11T08:37:40;102988.31;;;6.15;84.34
49473;BME280;67434;50.956;6.918;2023-02-11T08:40:06;102998.03;;;6.24;83.93
49473;BME280;67434;50.956;6.918;2023-02-11T08:42:31;102992.66;;;6.24;84.14
49473;BME280;67434;50.956;6.918;2023-02-11T08:44:56;102991.69;;;6.17;84.58
49473;BME280;67434;50.956;6.918;2023-02-11T08:47:22;103002.06;;;6.20;84.41
49473;BME280;67434;50.956;6.918;2023-02-11T08:49:48;102996.00;;;6.26;84.20
49473;BME280;67434;50.956;6.918;2023-02-11T08:52:14;102992.78;;;6.31;83.96
49473;BME280;67434;50.956;6.918;2023-02-11T08:54:39;102991.63;;;6.34;83.56
49473;BME280;67434;50.956;6.918;2023-02-11T08:57:04;103001.69;;;6.40;83.38
49473;BME280;67434;50.956;6.918;2023-02-11T08:59:30;103009.91;;;6.38;83.48
49473;BME280;67434;50.956;6.918;2023-02-11T09:01:55;103012.16;;;6.18;84.46
49473;BME280;67434;50.956;6.918;2023-02-11T09:04:22;103017.00;;;6.23;84.46
49473;BME280;67434;50.956;6.918;2023-02-11T09:06:47;103019.72;;;6.15;84.83
49473;BME280;67434;50.956;6.918;2023-02-11T09:09:14;103027.22;;;6.27;84.54
49473;BME280;67434;50.956;6.918;2023-02-11T09:11:41;103033.91;;;6.32;84.24
49473;BME280;67434;50.956;6.918;2023-02-11T09:14:07;103034.28;;;6.37;84.23
49473;BME280;67434;50.956;6.918;2023-02-11T09:16:36;103041.81;;;6.41;83.85
49473;BME280;67434;50.956;6.918;2023-02-11T09:19:03;103044.16;;;6.28;84.51
49473;BME280;67434;50.956;6.918;2023-02-11T09:21:29;103041.84;;;6.25;84.88
49473;BME280;67434;50.956;6.918;2023-02-11T09:23:55;103037.31;;;6.17;84.93
49473;BME280;67434;50.956;6.918;2023-02-11T09:26:26;103037.81;;;6.21;84.79
49473;BME280;67434;50.956;6.918;2023-02-11T09:28:52;103044.84;;;6.30;84.46
49473;BME280;67434;50.956;6.918;2023-02-11T09:31:20;103032.59;;;6.36;84.21
49473;BME280;67434;50.956;6.918;2023-02-11T09:33:49;103046.16;;;6.42;84.02
49473;BME280;67434;50.956;6.918;2023-02-11T09:36:18;103035.22;;;6.52;83.56
49473;BME280;67434;50.956;6.918;2023-02-11T09:38:44;103041.25;;;6.54;83.28
49473;BME280;67434;50.956;6.918;2023-02-11T09:43:58;103047.16;;;6.49;83.51
49473;BME280;67434;50.956;6.918;2023-02-11T09:46:30;103048.81;;;6.50;83.29
49473;BME280;67434;50.956;6.918;2023-02-11T09:48:56;103052.00;;;6.54;83.11
49473;BME280;67434;50.956;6.918;2023-02-11T09:51:35;103044.59;;;6.56;83.14
49473;BME280;67434;50.956;6.918;2023-02-11T09:54:53;103041.56;;;6.59;82.84
49473;BME280;67434;50.956;6.918;2023-02-11T09:56:57;103050.97;;;6.55;83.22
49473;BME280;67434;50.956;6.918;2023-02-11T09:59:23;103059.31;;;6.68;82.51
49473;BME280;67434;50.956;6.918;2023-02-11T10:02:03;103059.13;;;6.78;81.98
49473;BME280;67434;50.956;6.918;2023-02-11T10:07:40;103063.88;;;6.68;82.56
49473;BME280;67434;50.956;6.918;2023-02-11T10:15:50;103073.84;;;6.90;81.52
49473;BME280;67434;50.956;6.918;2023-02-11T10:23:45;103072.53;;;6.86;81.52
49473;BME280;67434;50.956;6.918;2023-02-11T10:26:14;103082.44;;;6.85;81.85
49473;BME280;67434;50.956;6.918;2023-02-11T10:28:44;103082.09;;;6.88;81.85
49473;BME280;67434;50.956;6.918;2023-02-11T10:31:15;103073.09;;;7.04;81.13
49473;BME280;67434;50.956;6.918;2023-02-11T10:33:45;103074.28;;;7.10;81.09
49473;BME280;67434;50.956;6.918;2023-02-11T10:36:15;103078.41;;;7.20;81.27
49473;BME280;67434;50.956;6.918;2023-02-11T10:38:42;103065.56;;;7.31;80.54
49473;BME280;67434;50.956;6.918;2023-02-11T10:41:17;103079.06;;;7.22;80.48
49473;BME280;67434;50.956;6.918;2023-02-11T10:43:44;103073.94;;;7.13;81.12
49473;BME280;67434;50.956;6.918;2023-02-11T10:46:16;103080.25;;;7.20;80.65
49473;BME280;67434;50.956;6.918;2023-02-11T10:48:48;103082.25;;;7.26;80.74
49473;BME280;67434;50.956;6.918;2023-02-11T10:54:15;103079.00;;;7.08;81.03
49473;BME280;67434;50.956;6.918;2023-02-11T10:56:50;103075.53;;;7.22;80.87
49473;BME280;67434;50.956;6.918;2023-02-11T10:59:31;103075.00;;;7.27;80.34
49473;BME280;67434;50.956;6.918;2023-02-11T11:02:04;103068.44;;;7.29;80.44
49473;BME280;67434;50.956;6.918;2023-02-11T11:07:29;103083.56;;;7.30;80.27
49473;BME280;67434;50.956;6.918;2023-02-11T11:10:06;103078.47;;;7.12;81.22
49473;BME280;67434;50.956;6.918;2023-02-11T11:15:15;103075.28;;;7.09;81.58
49473;BME280;67434;50.956;6.918;2023-02-11T11:17:43;103077.63;;;7.12;81.23
49473;BME280;67434;50.956;6.918;2023-02-11T11:20:24;103074.63;;;7.07;81.69
49473;BME280;67434;50.956;6.918;2023-02-11T11:23:05;103076.91;;;7.18;81.34
49473;BME280;67434;50.956;6.918;2023-02-11T11:25:31;103082.78;;;7.21;81.08
49473;BME280;67434;50.956;6.918;2023-02-11T11:27:59;103072.72;;;7.15;81.09
49473;BME280;67434;50.956;6.918;2023-02-11T11:30:40;103067.28;;;7.24;81.23
49473;BME280;67434;50.956;6.918;2023-02-11T11:33:18;103069.63;;;7.27;80.90
49473;BME280;67434;50.956;6.918;2023-02-11T11:35:58;103065.31;;;7.17;81.28
49473;BME280;67434;50.956;6.918;2023-02-11T11:38:26;103060.19;;;7.00;81.80
49473;BME280;67434;50.956;6.918;2023-02-11T11:41:13;103060.84;;;7.10;82.07
49473;BME280;67434;50.956;6.918;2023-02-11T11:43:38;103067.25;;;7.01;82.15
49473;BME280;67434;50.956;6.918;2023-02-11T11:46:04;103063.53;;;7.10;82.00
49473;BME280;67434;50.956;6.918;2023-02-11T11:48:36;103059.47;;;7.06;82.00
49473;BME280;67434;50.956;6.918;2023-02-11T11:51:05;103059.28;;;7.15;81.89
49473;BME280;67434;50.956;6.918;2023-02-11T11:53:59;103053.38;;;7.20;81.61
49473;BME280;67434;50.956;6.918;2023-02-11T11:56:30;103054.69;;;7.24;81.52
49473;BME280;67434;50.956;6.918;2023-02-11T11:59:00;103056.28;;;7.33;81.05
49473;BME280;67434;50.956;6.918;2023-02-11T12:01:49;103059.00;;;7.33;81.13
49473;BME280;67434;50.956;6.918;2023-02-11T12:07:38;103045.44;;;7.49;80.42
49473;BME280;67434;50.956;6.918;2023-02-11T12:15:53;103052.19;;;7.45;80.67
49473;BME280;67434;50.956;6.918;2023-02-11T12:18:53;103061.63;;;7.41;80.86
49473;BME280;67434;50.956;6.918;2023-02-11T12:21:33;103055.91;;;7.44;80.65
49473;BME280;67434;50.956;6.918;2023-02-11T12:27:25;103064.53;;;7.32;81.18
49473;BME280;67434;50.956;6.918;2023-02-11T12:35:25;103068.91;;;7.33;81.34
49473;BME280;67434;50.956;6.918;2023-02-11T12:40:58;103068.63;;;7.50;80.89
49473;BME280;67434;50.956;6.918;2023-02-11T12:43:35;103067.16;;;7.48;81.18
49473;BME280;67434;50.956;6.918;2023-02-11T12:51:53;103067.63;;;7.51;80.83
49473;BME280;67434;50.956;6.918;2023-02-11T12:54:42;103061.41;;;7.51;81.15
49473;BME280;67434;50.956;6.918;2023-02-11T12:57:17;103054.94;;;7.60;80.56
49473;BME280;67434;50.956;6.918;2023-02-11T13:02:40;103063.19;;;7.59;80.69
49473;BME280;67434;50.956;6.918;2023-02-11T13:08:24;103042.75;;;7.49;80.86
49473;BME280;67434;50.956;6.918;2023-02-11T13:10:55;103039.69;;;7.52;80.87
49473;BME280;67434;50.956;6.918;2023-02-11T13:13:25;103038.66;;;7.53;81.03
49473;BME280;67434;50.956;6.918;2023-02-11T13:16:00;103043.31;;;7.60;80.78
49473;BME280;67434;50.956;6.918;2023-02-11T13:27:07;103043.97;;;7.62;80.77
49473;BME280;67434;50.956;6.918;2023-02-11T13:32:12;103041.53;;;7.52;81.34
49473;BME280;67434;50.956;6.918;2023-02-11T13:37:36;103033.19;;;7.47;81.70
49473;BME280;67434;50.956;6.918;2023-02-11T13:42:49;103038.41;;;7.63;81.05
49473;BME280;67434;50.956;6.918;2023-02-11T13:47:57;103049.94;;;7.72;80.51
49473;BME280;67434;50.956;6.918;2023-02-11T13:50:24;103040.31;;;7.77;80.31
49473;BME280;67434;50.956;6.918;2023-02-11T13:53:02;103045.81;;;7.84;80.11
49473;BME280;67434;50.956;6.918;2023-02-11T13:55:29;103041.09;;;7.86;80.42
49473;BME280;67434;50.956;6.918;2023-02-11T14:06:11;103033.41;;;7.98;79.68
49473;BME280;67434;50.956;6.918;2023-02-11T14:17:32;103031.91;;;7.95;79.86
49473;BME280;67434;50.956;6.918;2023-02-11T14:19:53;103036.94;;;7.98;79.92
49473;BME280;67434;50.956;6.918;2023-02-11T14:22:24;103039.53;;;8.06;79.63
49473;BME280;67434;50.956;6.918;2023-02-11T14:38:44;103045.59;;;8.23;78.93
49473;BME280;67434;50.956;6.918;2023-02-11T14:41:21;103049.69;;;8.19;78.94
49473;BME280;67434;50.956;6.918;2023-02-11T14:43:54;103053.13;;;8.28;79.13
49473;BME280;67434;50.956;6.918;2023-02-11T14:46:23;103046.44;;;8.24;78.96
49473;BME280;67434;50.956;6.918;2023-02-11T14:48:51;103064.19;;;8.33;78.95
49473;BME280;67434;50.956;6.918;2023-02-11T14:51:39;103049.03;;;8.32;79.12
49473;BME280;67434;50.956;6.918;2023-02-11T14:54:22;103041.28;;;8.37;78.71
49473;BME280;67434;50.956;6.918;2023-02-11T14:57:12;103046.28;;;8.40;78.29
49473;BME280;67434;50.956;6.918;2023-02-11T14:59:38;103034.38;;;8.49;78.34
49473;BME280;67434;50.956;6.918;2023-02-11T15:02:22;103041.56;;;8.57;77.87
49473;BME280;67434;50.956;6.918;2023-02-11T15:04:48;103049.25;;;8.45;78.04
49473;BME280;67434;50.956;6.918;2023-02-11T15:07:14;103059.47;;;8.35;78.56
49473;BME280;67434;50.956;6.918;2023-02-11T15:09:42;103057.06;;;8.40;78.84
49473;BME280;67434;50.956;6.918;2023-02-11T15:12:24;103059.13;;;8.38;78.71
49473;BME280;67434;50.956;6.918;2023-02-11T15:14:52;103058.00;;;8.47;78.37
49473;BME280;67434;50.956;6.918;2023-02-11T15:17:22;103056.59;;;8.51;78.33
49473;BME280;67434;50.956;6.918;2023-02-11T15:19:52;103053.06;;;8.51;78.07